Terminal Aerodrome Forecast
Issued by NWS

Home | Current Version | Previous Version | Text Only | Print | Product List | Glossary On
Versions: 1 2 3 4 5 6 7 8 9 10 11 12 13 14
000
FTUS46 KSTO 161700
TAFMHR
TAF
KMHR 161723Z 1618/1718 VRB05KT P6SM FEW200
     FM162100 32008KT P6SM SCT200
     FM170000 VRB04KT P6SM SKC=

USA.gov is the U.S. government's official web portal to all federal, state and local government web resources and services.